sensor_id;sensor_type;location;lat;lon;timestamp;pressure;altitude;pressure_sealevel;temperature;humidity
51067;BME280;37112;45.892;-123.962;2023-04-30T00:00:22;101533.14;;;13.18;73.82
51067;BME280;37112;45.892;-123.962;2023-04-30T00:03:21;101535.01;;;13.14;73.77
51067;BME280;37112;45.892;-123.962;2023-04-30T00:06:04;101530.77;;;13.10;73.90
51067;BME280;37112;45.892;-123.962;2023-04-30T00:08:41;101523.80;;;13.13;74.23
51067;BME280;37112;45.892;-123.962;2023-04-30T00:11:38;101522.02;;;13.14;74.23
51067;BME280;37112;45.892;-123.962;2023-04-30T00:14:12;101526.10;;;13.11;74.23
51067;BME280;37112;45.892;-123.962;2023-04-30T00:16:42;101516.60;;;13.09;74.21
51067;BME280;37112;45.892;-123.962;2023-04-30T00:19:11;101506.93;;;13.13;74.53
51067;BME280;37112;45.892;-123.962;2023-04-30T00:21:39;101506.69;;;13.11;74.00
51067;BME280;37112;45.892;-123.962;2023-04-30T00:24:07;101494.51;;;13.01;73.88
51067;BME280;37112;45.892;-123.962;2023-04-30T00:26:43;101481.25;;;13.04;74.47
51067;BME280;37112;45.892;-123.962;2023-04-30T00:29:10;101482.55;;;13.15;74.76
51067;BME280;37112;45.892;-123.962;2023-04-30T00:31:45;101489.85;;;13.21;74.66
51067;BME280;37112;45.892;-123.962;2023-04-30T00:34:20;101481.82;;;13.21;74.29
51067;BME280;37112;45.892;-123.962;2023-04-30T00:36:59;101488.30;;;13.17;74.25
51067;BME280;37112;45.892;-123.962;2023-04-30T00:39:23;101488.55;;;13.16;74.20
51067;BME280;37112;45.892;-123.962;2023-04-30T00:41:59;101482.17;;;13.06;74.08
51067;BME280;37112;45.892;-123.962;2023-04-30T00:44:26;101480.15;;;13.05;74.39
51067;BME280;37112;45.892;-123.962;2023-04-30T00:47:02;101484.18;;;12.95;74.27
51067;BME280;37112;45.892;-123.962;2023-04-30T00:49:34;101470.92;;;12.91;74.44
51067;BME280;37112;45.892;-123.962;2023-04-30T00:52:08;101474.79;;;12.94;74.87
51067;BME280;37112;45.892;-123.962;2023-04-30T00:54:44;101474.52;;;12.90;74.63
51067;BME280;37112;45.892;-123.962;2023-04-30T00:57:18;101469.28;;;12.91;74.97
51067;BME280;37112;45.892;-123.962;2023-04-30T00:59:53;101467.22;;;12.95;75.05
51067;BME280;37112;45.892;-123.962;2023-04-30T01:02:30;101461.77;;;12.97;75.04
51067;BME280;37112;45.892;-123.962;2023-04-30T01:05:18;101464.36;;;13.01;74.97
51067;BME280;37112;45.892;-123.962;2023-04-30T01:07:54;101457.63;;;13.00;74.88
51067;BME280;37112;45.892;-123.962;2023-04-30T01:10:18;101455.70;;;12.92;74.45
51067;BME280;37112;45.892;-123.962;2023-04-30T01:12:52;101466.61;;;12.83;74.56
51067;BME280;37112;45.892;-123.962;2023-04-30T01:15:35;101465.81;;;12.71;74.69
51067;BME280;37112;45.892;-123.962;2023-04-30T01:18:17;101468.06;;;12.58;75.11
51067;BME280;37112;45.892;-123.962;2023-04-30T01:20:57;101472.80;;;12.50;75.55
51067;BME280;37112;45.892;-123.962;2023-04-30T01:23:53;101470.30;;;12.45;75.71
51067;BME280;37112;45.892;-123.962;2023-04-30T01:26:47;101458.35;;;12.29;75.74
51067;BME280;37112;45.892;-123.962;2023-04-30T01:29:21;101456.64;;;12.16;76.13
51067;BME280;37112;45.892;-123.962;2023-04-30T01:32:16;101462.31;;;12.05;76.48
51067;BME280;37112;45.892;-123.962;2023-04-30T01:34:50;101448.92;;;11.97;76.64
51067;BME280;37112;45.892;-123.962;2023-04-30T01:37:30;101448.19;;;11.94;77.09
51067;BME280;37112;45.892;-123.962;2023-04-30T01:40:15;101448.83;;;11.93;77.60
51067;BME280;37112;45.892;-123.962;2023-04-30T01:42:55;101445.82;;;11.92;77.53
51067;BME280;37112;45.892;-123.962;2023-04-30T01:46:04;101438.72;;;11.95;77.86
51067;BME280;37112;45.892;-123.962;2023-04-30T01:48:49;101431.20;;;11.90;77.77
51067;BME280;37112;45.892;-123.962;2023-04-30T01:51:33;101421.27;;;11.87;77.94
51067;BME280;37112;45.892;-123.962;2023-04-30T01:54:35;101407.21;;;11.89;77.97
51067;BME280;37112;45.892;-123.962;2023-04-30T01:57:15;101403.14;;;11.92;78.00
51067;BME280;37112;45.892;-123.962;2023-04-30T01:59:52;101412.16;;;11.95;78.13
51067;BME280;37112;45.892;-123.962;2023-04-30T02:02:19;101411.25;;;11.99;78.01
51067;BME280;37112;45.892;-123.962;2023-04-30T02:04:55;101406.30;;;11.99;77.66
51067;BME280;37112;45.892;-123.962;2023-04-30T02:07:39;101408.91;;;11.93;77.88
51067;BME280;37112;45.892;-123.962;2023-04-30T02:10:16;101416.35;;;11.83;77.93
51067;BME280;37112;45.892;-123.962;2023-04-30T02:12:51;101415.62;;;11.74;78.22
51067;BME280;37112;45.892;-123.962;2023-04-30T02:15:26;101406.80;;;11.67;78.32
51067;BME280;37112;45.892;-123.962;2023-04-30T02:18:01;101408.20;;;11.67;78.64
51067;BME280;37112;45.892;-123.962;2023-04-30T02:20:25;101418.65;;;11.68;78.74
51067;BME280;37112;45.892;-123.962;2023-04-30T02:22:59;101415.77;;;11.66;78.80
51067;BME280;37112;45.892;-123.962;2023-04-30T02:25:27;101407.31;;;11.62;78.83
51067;BME280;37112;45.892;-123.962;2023-04-30T02:28:07;101408.72;;;11.58;79.04
51067;BME280;37112;45.892;-123.962;2023-04-30T02:30:41;101408.55;;;11.53;79.04
51067;BME280;37112;45.892;-123.962;2023-04-30T02:33:29;101409.81;;;11.47;78.88
51067;BME280;37112;45.892;-123.962;2023-04-30T02:36:04;101415.64;;;11.44;79.22
51067;BME280;37112;45.892;-123.962;2023-04-30T02:38:38;101417.85;;;11.43;79.29
51067;BME280;37112;45.892;-123.962;2023-04-30T02:41:13;101421.20;;;11.43;79.57
51067;BME280;37112;45.892;-123.962;2023-04-30T02:43:48;101420.90;;;11.42;79.85
51067;BME280;37112;45.892;-123.962;2023-04-30T02:46:23;101424.27;;;11.40;79.75
51067;BME280;37112;45.892;-123.962;2023-04-30T02:48:51;101420.05;;;11.39;80.18
51067;BME280;37112;45.892;-123.962;2023-04-30T02:51:25;101422.58;;;11.38;80.12
51067;BME280;37112;45.892;-123.962;2023-04-30T02:54:00;101425.41;;;11.35;80.29
51067;BME280;37112;45.892;-123.962;2023-04-30T02:56:25;101426.25;;;11.30;80.53
51067;BME280;37112;45.892;-123.962;2023-04-30T02:58:50;101428.59;;;11.24;80.47
51067;BME280;37112;45.892;-123.962;2023-04-30T03:01:15;101432.29;;;11.19;80.69
51067;BME280;37112;45.892;-123.962;2023-04-30T03:03:50;101430.61;;;11.10;81.05
51067;BME280;37112;45.892;-123.962;2023-04-30T03:06:16;101436.41;;;11.06;80.99
51067;BME280;37112;45.892;-123.962;2023-04-30T03:08:43;101438.95;;;11.05;81.09
51067;BME280;37112;45.892;-123.962;2023-04-30T03:11:21;101438.77;;;11.05;81.41
51067;BME280;37112;45.892;-123.962;2023-04-30T03:13:56;101439.87;;;11.04;81.57
51067;BME280;37112;45.892;-123.962;2023-04-30T03:16:32;101442.23;;;11.03;81.79
51067;BME280;37112;45.892;-123.962;2023-04-30T03:19:01;101443.13;;;11.03;81.84
51067;BME280;37112;45.892;-123.962;2023-04-30T03:21:39;101441.77;;;11.02;81.83
51067;BME280;37112;45.892;-123.962;2023-04-30T03:24:03;101438.27;;;11.04;81.89
51067;BME280;37112;45.892;-123.962;2023-04-30T03:26:27;101434.98;;;11.06;81.85
51067;BME280;37112;45.892;-123.962;2023-04-30T03:29:03;101438.37;;;11.06;81.89
51067;BME280;37112;45.892;-123.962;2023-04-30T03:31:38;101445.27;;;11.07;82.04
51067;BME280;37112;45.892;-123.962;2023-04-30T03:34:14;101439.82;;;11.02;81.93
51067;BME280;37112;45.892;-123.962;2023-04-30T03:36:50;101444.16;;;10.98;82.24
51067;BME280;37112;45.892;-123.962;2023-04-30T03:39:19;101444.02;;;10.94;82.35
51067;BME280;37112;45.892;-123.962;2023-04-30T03:41:49;101441.89;;;10.91;82.38
51067;BME280;37112;45.892;-123.962;2023-04-30T03:44:17;101438.69;;;10.88;82.30
51067;BME280;37112;45.892;-123.962;2023-04-30T03:46:52;101433.38;;;10.87;82.16
51067;BME280;37112;45.892;-123.962;2023-04-30T03:49:19;101432.03;;;10.90;82.30
51067;BME280;37112;45.892;-123.962;2023-04-30T03:51:48;101421.64;;;10.91;82.34
51067;BME280;37112;45.892;-123.962;2023-04-30T03:54:11;101420.04;;;10.91;82.48
51067;BME280;37112;45.892;-123.962;2023-04-30T03:56:40;101423.03;;;10.88;82.20
51067;BME280;37112;45.892;-123.962;2023-04-30T03:59:14;101423.05;;;10.87;82.32
51067;BME280;37112;45.892;-123.962;2023-04-30T04:01:49;101421.95;;;10.88;82.32
51067;BME280;37112;45.892;-123.962;2023-04-30T04:04:27;101418.80;;;10.91;82.36
51067;BME280;37112;45.892;-123.962;2023-04-30T04:06:54;101421.62;;;10.94;82.16
51067;BME280;37112;45.892;-123.962;2023-04-30T04:09:32;101419.16;;;10.97;82.26
51067;BME280;37112;45.892;-123.962;2023-04-30T04:12:11;101420.55;;;11.01;82.25
51067;BME280;37112;45.892;-123.962;2023-04-30T04:14:49;101426.52;;;11.02;82.19
51067;BME280;37112;45.892;-123.962;2023-04-30T04:17:17;101429.48;;;11.03;82.21
51067;BME280;37112;45.892;-123.962;2023-04-30T04:19:45;101425.40;;;11.02;82.33
51067;BME280;37112;45.892;-123.962;2023-04-30T04:22:23;101419.52;;;11.03;82.11
51067;BME280;37112;45.892;-123.962;2023-04-30T04:24:50;101418.45;;;11.03;82.08
51067;BME280;37112;45.892;-123.962;2023-04-30T04:27:27;101423.11;;;11.02;82.27
51067;BME280;37112;45.892;-123.962;2023-04-30T04:30:03;101428.64;;;11.02;82.25
51067;BME280;37112;45.892;-123.962;2023-04-30T04:32:39;101428.30;;;11.02;82.22
51067;BME280;37112;45.892;-123.962;2023-04-30T04:35:17;101432.42;;;11.01;82.19
51067;BME280;37112;45.892;-123.962;2023-04-30T04:37:53;101434.30;;;10.99;82.19
51067;BME280;37112;45.892;-123.962;2023-04-30T04:40:21;101438.63;;;10.98;82.41
51067;BME280;37112;45.892;-123.962;2023-04-30T04:42:50;101437.55;;;10.95;82.63
51067;BME280;37112;45.892;-123.962;2023-04-30T04:45:21;101436.02;;;10.92;82.46
51067;BME280;37112;45.892;-123.962;2023-04-30T04:48:03;101433.02;;;10.87;82.78
51067;BME280;37112;45.892;-123.962;2023-04-30T04:50:38;101435.83;;;10.85;82.69
51067;BME280;37112;45.892;-123.962;2023-04-30T04:53:15;101437.38;;;10.83;83.15
51067;BME280;37112;45.892;-123.962;2023-04-30T04:55:38;101435.46;;;10.79;83.07
51067;BME280;37112;45.892;-123.962;2023-04-30T04:58:05;101440.30;;;10.78;83.19
51067;BME280;37112;45.892;-123.962;2023-04-30T05:00:45;101435.61;;;10.79;83.31
51067;BME280;37112;45.892;-123.962;2023-04-30T05:03:15;101430.14;;;10.79;83.43
51067;BME280;37112;45.892;-123.962;2023-04-30T05:05:45;101429.38;;;10.77;83.10
51067;BME280;37112;45.892;-123.962;2023-04-30T05:08:15;101428.88;;;10.76;83.33
51067;BME280;37112;45.892;-123.962;2023-04-30T05:10:29;101430.12;;;10.73;83.21
51067;BME280;37112;45.892;-123.962;2023-04-30T05:12:56;101432.52;;;10.69;83.27
51067;BME280;37112;45.892;-123.962;2023-04-30T05:15:25;101431.24;;;10.66;83.48
51067;BME280;37112;45.892;-123.962;2023-04-30T05:20:25;101436.50;;;10.64;83.70
51067;BME280;37112;45.892;-123.962;2023-04-30T05:22:53;101438.98;;;10.64;83.81
51067;BME280;37112;45.892;-123.962;2023-04-30T05:25:28;101436.49;;;10.64;83.83
51067;BME280;37112;45.892;-123.962;2023-04-30T05:27:54;101433.04;;;10.65;83.93
51067;BME280;37112;45.892;-123.962;2023-04-30T05:30:12;101429.52;;;10.65;83.76
51067;BME280;37112;45.892;-123.962;2023-04-30T05:32:49;101424.09;;;10.64;83.55
51067;BME280;37112;45.892;-123.962;2023-04-30T05:35:13;101427.33;;;10.63;83.47
51067;BME280;37112;45.892;-123.962;2023-04-30T05:37:48;101429.42;;;10.64;83.43
51067;BME280;37112;45.892;-123.962;2023-04-30T05:40:17;101433.65;;;10.64;83.41
51067;BME280;37112;45.892;-123.962;2023-04-30T05:42:51;101434.66;;;10.65;83.45
51067;BME280;37112;45.892;-123.962;2023-04-30T05:45:15;101440.55;;;10.65;83.54
51067;BME280;37112;45.892;-123.962;2023-04-30T05:47:44;101439.22;;;10.63;83.31
51067;BME280;37112;45.892;-123.962;2023-04-30T05:50:10;101441.96;;;10.62;83.24
51067;BME280;37112;45.892;-123.962;2023-04-30T05:52:28;101441.01;;;10.63;83.45
51067;BME280;37112;45.892;-123.962;2023-04-30T05:55:04;101437.85;;;10.62;83.37
51067;BME280;37112;45.892;-123.962;2023-04-30T05:57:26;101434.23;;;10.60;83.16
51067;BME280;37112;45.892;-123.962;2023-04-30T05:59:50;101435.58;;;10.58;83.08
51067;BME280;37112;45.892;-123.962;2023-04-30T06:02:21;101433.09;;;10.55;82.83
51067;BME280;37112;45.892;-123.962;2023-04-30T06:04:38;101434.83;;;10.53;82.77
51067;BME280;37112;45.892;-123.962;2023-04-30T06:07:22;101437.89;;;10.52;82.81
51067;BME280;37112;45.892;-123.962;2023-04-30T06:10:09;101430.83;;;10.51;82.77
51067;BME280;37112;45.892;-123.962;2023-04-30T06:12:45;101427.80;;;10.51;82.80
51067;BME280;37112;45.892;-123.962;2023-04-30T06:15:22;101425.01;;;10.50;82.67
51067;BME280;37112;45.892;-123.962;2023-04-30T06:17:48;101425.05;;;10.49;82.85
51067;BME280;37112;45.892;-123.962;2023-04-30T06:20:23;101433.04;;;10.49;82.95
51067;BME280;37112;45.892;-123.962;2023-04-30T06:22:48;101431.69;;;10.48;82.96
51067;BME280;37112;45.892;-123.962;2023-04-30T06:25:24;101438.50;;;10.47;82.95
51067;BME280;37112;45.892;-123.962;2023-04-30T06:28:13;101443.73;;;10.46;83.11
51067;BME280;37112;45.892;-123.962;2023-04-30T06:30:33;101441.60;;;10.43;83.61
51067;BME280;37112;45.892;-123.962;2023-04-30T06:32:48;101439.52;;;10.39;83.29
51067;BME280;37112;45.892;-123.962;2023-04-30T06:35:12;101438.71;;;10.33;83.40
51067;BME280;37112;45.892;-123.962;2023-04-30T06:37:49;101440.55;;;10.29;83.10
51067;BME280;37112;45.892;-123.962;2023-04-30T06:40:09;101443.33;;;10.27;83.14
51067;BME280;37112;45.892;-123.962;2023-04-30T06:42:43;101444.57;;;10.27;83.43
51067;BME280;37112;45.892;-123.962;2023-04-30T06:45:17;101437.52;;;10.26;83.54
51067;BME280;37112;45.892;-123.962;2023-04-30T06:47:52;101440.86;;;10.24;83.47
51067;BME280;37112;45.892;-123.962;2023-04-30T06:50:26;101438.18;;;10.20;83.55
51067;BME280;37112;45.892;-123.962;2023-04-30T06:52:56;101440.23;;;10.18;83.61
51067;BME280;37112;45.892;-123.962;2023-04-30T06:55:12;101438.08;;;10.18;83.68
51067;BME280;37112;45.892;-123.962;2023-04-30T06:57:35;101439.36;;;10.18;83.88
51067;BME280;37112;45.892;-123.962;2023-04-30T07:00:13;101441.02;;;10.17;83.93
51067;BME280;37112;45.892;-123.962;2023-04-30T07:02:50;101438.42;;;10.16;83.89
51067;BME280;37112;45.892;-123.962;2023-04-30T07:05:27;101442.40;;;10.14;84.15
51067;BME280;37112;45.892;-123.962;2023-04-30T07:08:25;101440.64;;;10.14;84.34
51067;BME280;37112;45.892;-123.962;2023-04-30T07:11:08;101436.46;;;10.13;84.17
51067;BME280;37112;45.892;-123.962;2023-04-30T07:18:09;101436.67;;;10.05;84.85
51067;BME280;37112;45.892;-123.962;2023-04-30T07:20:44;101434.14;;;10.03;85.37
51067;BME280;37112;45.892;-123.962;2023-04-30T07:23:11;101440.47;;;10.01;85.27
51067;BME280;37112;45.892;-123.962;2023-04-30T07:25:46;101435.52;;;10.00;85.32
51067;BME280;37112;45.892;-123.962;2023-04-30T07:28:20;101431.10;;;9.97;85.81
51067;BME280;37112;45.892;-123.962;2023-04-30T07:30:55;101428.48;;;9.97;85.81
51067;BME280;37112;45.892;-123.962;2023-04-30T07:33:18;101429.65;;;9.98;86.10
51067;BME280;37112;45.892;-123.962;2023-04-30T07:35:55;101424.15;;;9.98;85.75
51067;BME280;37112;45.892;-123.962;2023-04-30T07:38:18;101420.90;;;9.99;85.86
51067;BME280;37112;45.892;-123.962;2023-04-30T07:40:52;101421.54;;;10.00;85.77
51067;BME280;37112;45.892;-123.962;2023-04-30T07:43:17;101416.79;;;10.02;85.67
51067;BME280;37112;45.892;-123.962;2023-04-30T07:45:45;101419.36;;;10.04;85.76
51067;BME280;37112;45.892;-123.962;2023-04-30T07:48:10;101415.19;;;10.06;85.95
51067;BME280;37112;45.892;-123.962;2023-04-30T07:50:44;101411.29;;;10.09;85.77
51067;BME280;37112;45.892;-123.962;2023-04-30T07:53:24;101410.66;;;10.11;85.95
51067;BME280;37112;45.892;-123.962;2023-04-30T07:56:00;101406.67;;;10.12;85.90
51067;BME280;37112;45.892;-123.962;2023-04-30T07:58:30;101407.45;;;10.14;85.87
51067;BME280;37112;45.892;-123.962;2023-04-30T08:01:04;101404.80;;;10.17;86.12
51067;BME280;37112;45.892;-123.962;2023-04-30T08:03:39;101405.10;;;10.18;85.90
51067;BME280;37112;45.892;-123.962;2023-04-30T08:06:14;101408.39;;;10.20;86.02
51067;BME280;37112;45.892;-123.962;2023-04-30T08:08:50;101411.17;;;10.21;86.12
51067;BME280;37112;45.892;-123.962;2023-04-30T08:11:24;101409.55;;;10.21;86.33
51067;BME280;37112;45.892;-123.962;2023-04-30T08:13:49;101410.58;;;10.22;86.45
51067;BME280;37112;45.892;-123.962;2023-04-30T08:16:23;101405.10;;;10.22;86.46
51067;BME280;37112;45.892;-123.962;2023-04-30T08:18:44;101405.86;;;10.21;86.30
51067;BME280;37112;45.892;-123.962;2023-04-30T08:21:24;101401.90;;;10.18;86.61
51067;BME280;37112;45.892;-123.962;2023-04-30T08:23:59;101407.70;;;10.16;86.46
51067;BME280;37112;45.892;-123.962;2023-04-30T08:26:35;101411.07;;;10.16;86.91
51067;BME280;37112;45.892;-123.962;2023-04-30T08:29:02;101403.77;;;10.16;87.01
51067;BME280;37112;45.892;-123.962;2023-04-30T08:31:39;101397.63;;;10.16;87.22
51067;BME280;37112;45.892;-123.962;2023-04-30T08:34:17;101396.02;;;10.16;87.16
51067;BME280;37112;45.892;-123.962;2023-04-30T08:36:50;101392.96;;;10.16;86.98
51067;BME280;37112;45.892;-123.962;2023-04-30T08:39:26;101391.66;;;10.17;87.01
51067;BME280;37112;45.892;-123.962;2023-04-30T08:42:05;101389.23;;;10.20;86.88
51067;BME280;37112;45.892;-123.962;2023-04-30T08:44:29;101393.79;;;10.21;86.75
51067;BME280;37112;45.892;-123.962;2023-04-30T08:47:09;101390.15;;;10.23;86.80
51067;BME280;37112;45.892;-123.962;2023-04-30T08:49:47;101386.65;;;10.25;86.81
51067;BME280;37112;45.892;-123.962;2023-04-30T08:52:24;101384.73;;;10.28;87.06
51067;BME280;37112;45.892;-123.962;2023-04-30T08:54:49;101379.37;;;10.31;87.21
51067;BME280;37112;45.892;-123.962;2023-04-30T08:57:26;101384.36;;;10.34;87.14
51067;BME280;37112;45.892;-123.962;2023-04-30T09:00:03;101386.64;;;10.38;87.14
51067;BME280;37112;45.892;-123.962;2023-04-30T09:02:30;101386.06;;;10.42;87.11
51067;BME280;37112;45.892;-123.962;2023-04-30T09:05:02;101383.63;;;10.44;87.03
51067;BME280;37112;45.892;-123.962;2023-04-30T09:07:41;101384.38;;;10.47;87.04
51067;BME280;37112;45.892;-123.962;2023-04-30T09:10:20;101382.02;;;10.48;87.00
51067;BME280;37112;45.892;-123.962;2023-04-30T09:13:00;101383.67;;;10.50;87.04
51067;BME280;37112;45.892;-123.962;2023-04-30T09:15:37;101381.09;;;10.51;87.17
51067;BME280;37112;45.892;-123.962;2023-04-30T09:18:13;101380.52;;;10.52;87.14
51067;BME280;37112;45.892;-123.962;2023-04-30T09:21:00;101377.13;;;10.52;87.10
51067;BME280;37112;45.892;-123.962;2023-04-30T09:23:25;101373.98;;;10.52;87.31
51067;BME280;37112;45.892;-123.962;2023-04-30T09:26:00;101364.44;;;10.51;87.30
51067;BME280;37112;45.892;-123.962;2023-04-30T09:28:34;101362.46;;;10.51;87.17
51067;BME280;37112;45.892;-123.962;2023-04-30T09:31:21;101360.70;;;10.51;87.28
51067;BME280;37112;45.892;-123.962;2023-04-30T09:33:55;101356.60;;;10.51;87.23
51067;BME280;37112;45.892;-123.962;2023-04-30T09:36:15;101360.10;;;10.52;87.33
51067;BME280;37112;45.892;-123.962;2023-04-30T09:38:39;101362.74;;;10.52;87.42
51067;BME280;37112;45.892;-123.962;2023-04-30T09:41:03;101365.18;;;10.53;87.41
51067;BME280;37112;45.892;-123.962;2023-04-30T09:43:46;101366.55;;;10.54;87.45
51067;BME280;37112;45.892;-123.962;2023-04-30T09:46:29;101367.25;;;10.57;87.46
51067;BME280;37112;45.892;-123.962;2023-04-30T09:49:04;101364.08;;;10.60;87.56
51067;BME280;37112;45.892;-123.962;2023-04-30T09:51:32;101358.08;;;10.63;87.40
51067;BME280;37112;45.892;-123.962;2023-04-30T09:54:11;101352.80;;;10.65;87.47
51067;BME280;37112;45.892;-123.962;2023-04-30T09:56:40;101346.75;;;10.68;87.26
51067;BME280;37112;45.892;-123.962;2023-04-30T09:59:16;101341.73;;;10.69;87.18
51067;BME280;37112;45.892;-123.962;2023-04-30T10:01:47;101337.73;;;10.70;87.21
51067;BME280;37112;45.892;-123.962;2023-04-30T10:04:25;101336.64;;;10.74;87.23
51067;BME280;37112;45.892;-123.962;2023-04-30T10:07:01;101333.13;;;10.76;87.12
51067;BME280;37112;45.892;-123.962;2023-04-30T10:09:42;101323.68;;;10.80;87.15
51067;BME280;37112;45.892;-123.962;2023-04-30T10:12:23;101323.39;;;10.82;86.98
51067;BME280;37112;45.892;-123.962;2023-04-30T10:15:01;101327.31;;;10.84;87.02
51067;BME280;37112;45.892;-123.962;2023-04-30T10:17:39;101327.28;;;10.88;87.08
51067;BME280;37112;45.892;-123.962;2023-04-30T10:20:15;101328.06;;;10.90;87.00
51067;BME280;37112;45.892;-123.962;2023-04-30T10:22:52;101329.06;;;10.91;87.07
51067;BME280;37112;45.892;-123.962;2023-04-30T10:25:30;101327.20;;;10.93;87.06
51067;BME280;37112;45.892;-123.962;2023-04-30T10:28:08;101325.30;;;10.94;87.07
51067;BME280;37112;45.892;-123.962;2023-04-30T10:30:34;101326.72;;;10.95;86.94
51067;BME280;37112;45.892;-123.962;2023-04-30T10:33:17;101321.18;;;10.95;86.93
51067;BME280;37112;45.892;-123.962;2023-04-30T10:35:58;101319.13;;;10.97;86.99
51067;BME280;37112;45.892;-123.962;2023-04-30T10:38:36;101316.73;;;10.98;86.88
51067;BME280;37112;45.892;-123.962;2023-04-30T10:41:08;101319.02;;;10.99;86.93
51067;BME280;37112;45.892;-123.962;2023-04-30T10:43:42;101323.23;;;11.00;86.80
51067;BME280;37112;45.892;-123.962;2023-04-30T10:46:27;101326.67;;;11.01;86.97
51067;BME280;37112;45.892;-123.962;2023-04-30T10:49:02;101326.95;;;11.03;86.99
51067;BME280;37112;45.892;-123.962;2023-04-30T10:51:50;101318.03;;;11.03;86.85
51067;BME280;37112;45.892;-123.962;2023-04-30T10:54:30;101317.59;;;11.04;86.83
51067;BME280;37112;45.892;-123.962;2023-04-30T10:57:17;101314.55;;;11.05;86.93
51067;BME280;37112;45.892;-123.962;2023-04-30T10:59:50;101312.02;;;11.06;86.82
51067;BME280;37112;45.892;-123.962;2023-04-30T11:02:29;101300.50;;;11.05;86.64
51067;BME280;37112;45.892;-123.962;2023-04-30T11:05:18;101298.16;;;11.06;86.67
51067;BME280;37112;45.892;-123.962;2023-04-30T11:07:55;101301.02;;;11.08;86.72
51067;BME280;37112;45.892;-123.962;2023-04-30T11:10:22;101300.31;;;11.08;86.59
51067;BME280;37112;45.892;-123.962;2023-04-30T11:12:57;101299.91;;;11.09;86.53
51067;BME280;37112;45.892;-123.962;2023-04-30T11:15:32;101301.44;;;11.10;86.56
51067;BME280;37112;45.892;-123.962;2023-04-30T11:17:58;101298.46;;;11.12;86.58
51067;BME280;37112;45.892;-123.962;2023-04-30T11:20:32;101299.44;;;11.14;86.50
51067;BME280;37112;45.892;-123.962;2023-04-30T11:23:16;101293.27;;;11.16;86.49
51067;BME280;37112;45.892;-123.962;2023-04-30T11:26:09;101300.29;;;11.18;86.40
51067;BME280;37112;45.892;-123.962;2023-04-30T11:28:51;101298.77;;;11.19;86.35
51067;BME280;37112;45.892;-123.962;2023-04-30T11:34:10;101296.38;;;11.23;86.37
51067;BME280;37112;45.892;-123.962;2023-04-30T11:36:45;101289.34;;;11.25;86.15
51067;BME280;37112;45.892;-123.962;2023-04-30T11:39:21;101291.27;;;11.25;86.11
51067;BME280;37112;45.892;-123.962;2023-04-30T11:41:58;101294.48;;;11.25;86.04
51067;BME280;37112;45.892;-123.962;2023-04-30T11:44:31;101288.27;;;11.25;86.04
51067;BME280;37112;45.892;-123.962;2023-04-30T11:47:09;101290.98;;;11.24;85.92
51067;BME280;37112;45.892;-123.962;2023-04-30T11:49:35;101293.23;;;11.25;86.05
51067;BME280;37112;45.892;-123.962;2023-04-30T11:52:03;101292.42;;;11.27;85.84
51067;BME280;37112;45.892;-123.962;2023-04-30T11:54:40;101290.48;;;11.26;85.86
51067;BME280;37112;45.892;-123.962;2023-04-30T11:57:05;101288.02;;;11.26;85.73
51067;BME280;37112;45.892;-123.962;2023-04-30T11:59:29;101283.31;;;11.27;85.72
51067;BME280;37112;45.892;-123.962;2023-04-30T12:01:56;101276.52;;;11.28;85.57
51067;BME280;37112;45.892;-123.962;2023-04-30T12:04:20;101271.50;;;11.29;85.59
51067;BME280;37112;45.892;-123.962;2023-04-30T12:06:55;101273.61;;;11.29;85.54
51067;BME280;37112;45.892;-123.962;2023-04-30T12:09:31;101270.40;;;11.29;85.41
51067;BME280;37112;45.892;-123.962;2023-04-30T12:12:06;101271.48;;;11.29;85.39
51067;BME280;37112;45.892;-123.962;2023-04-30T12:14:41;101266.26;;;11.30;85.38
51067;BME280;37112;45.892;-123.962;2023-04-30T12:17:32;101268.23;;;11.30;85.27
51067;BME280;37112;45.892;-123.962;2023-04-30T12:20:11;101268.20;;;11.30;85.29
51067;BME280;37112;45.892;-123.962;2023-04-30T12:22:39;101271.76;;;11.30;85.26
51067;BME280;37112;45.892;-123.962;2023-04-30T12:25:14;101269.02;;;11.32;85.29
51067;BME280;37112;45.892;-123.962;2023-04-30T12:27:51;101256.21;;;11.31;85.21
51067;BME280;37112;45.892;-123.962;2023-04-30T12:30:23;101260.02;;;11.33;85.12
51067;BME280;37112;45.892;-123.962;2023-04-30T12:32:58;101260.38;;;11.33;85.14
51067;BME280;37112;45.892;-123.962;2023-04-30T12:35:35;101264.91;;;11.34;85.14
51067;BME280;37112;45.892;-123.962;2023-04-30T12:38:14;101261.19;;;11.34;85.14
51067;BME280;37112;45.892;-123.962;2023-04-30T12:40:51;101262.98;;;11.34;84.95
51067;BME280;37112;45.892;-123.962;2023-04-30T12:43:25;101261.73;;;11.34;85.06
51067;BME280;37112;45.892;-123.962;2023-04-30T12:46:03;101258.91;;;11.34;84.96
51067;BME280;37112;45.892;-123.962;2023-04-30T12:48:47;101262.19;;;11.33;84.96
51067;BME280;37112;45.892;-123.962;2023-04-30T12:51:24;101263.36;;;11.31;84.96
51067;BME280;37112;45.892;-123.962;2023-04-30T12:54:00;101258.38;;;11.31;85.07
51067;BME280;37112;45.892;-123.962;2023-04-30T12:56:24;101263.16;;;11.31;85.08
51067;BME280;37112;45.892;-123.962;2023-04-30T12:58:52;101263.70;;;11.31;84.96
51067;BME280;37112;45.892;-123.962;2023-04-30T13:01:27;101264.29;;;11.31;85.07
51067;BME280;37112;45.892;-123.962;2023-04-30T13:04:07;101263.45;;;11.30;84.87